createdAt,value
2019-04-25T00:00:17.638Z,11.01
2019-04-25T00:02:46.951Z,10.97
2019-04-25T00:05:16.568Z,10.94
2019-04-25T00:07:47.139Z,10.74
2019-04-25T00:10:16.830Z,11.03
2019-04-25T00:12:46.208Z,11.08
2019-04-25T00:15:15.481Z,10.81
2019-04-25T00:17:44.776Z,10.84
2019-04-25T00:20:14.659Z,10.82
2019-04-25T00:22:45.637Z,10.78
2019-04-25T00:25:32.856Z,10.79
2019-04-25T00:28:02.619Z,10.60
2019-04-25T00:30:33.121Z,10.70
2019-04-25T00:33:02.432Z,10.79
2019-04-25T00:35:32.175Z,10.68
2019-04-25T00:38:02.377Z,10.65
2019-04-25T00:40:32.284Z,10.54
2019-04-25T00:43:01.724Z,10.62
2019-04-25T00:45:31.697Z,10.66
2019-04-25T00:48:04.024Z,10.59
2019-04-25T00:50:33.806Z,10.62
2019-04-25T00:53:03.282Z,10.66
2019-04-25T00:55:32.679Z,10.37
2019-04-25T00:58:09.703Z,10.35
2019-04-25T01:00:43.454Z,10.72
2019-04-25T01:03:26.707Z,10.54
2019-04-25T01:05:56.292Z,10.41
2019-04-25T01:08:25.850Z,10.66
2019-04-25T01:10:55.520Z,10.60
2019-04-25T01:13:24.819Z,10.60
2019-04-25T01:15:54.744Z,10.60
2019-04-25T01:18:25.221Z,10.76
2019-04-25T01:20:55.475Z,10.74
2019-04-25T01:23:25.153Z,10.59
2019-04-25T01:25:54.806Z,10.72
2019-04-25T01:28:24.439Z,10.77
2019-04-25T01:30:55.051Z,10.76
2019-04-25T01:33:25.558Z,10.73
2019-04-25T01:36:05.786Z,10.64
2019-04-25T01:38:37.151Z,10.68
2019-04-25T01:41:20.086Z,10.59
2019-04-25T01:43:53.147Z,10.65
2019-04-25T01:46:24.214Z,10.57
2019-04-25T01:48:54.520Z,10.54
2019-04-25T01:51:24.555Z,10.58
2019-04-25T01:53:54.841Z,10.47
2019-04-25T01:56:25.199Z,10.53
2019-04-25T01:58:55.045Z,10.52
2019-04-25T02:01:25.610Z,10.47
2019-04-25T02:03:55.543Z,10.46
2019-04-25T02:06:25.130Z,10.44
2019-04-25T02:08:55.228Z,10.39
2019-04-25T02:11:34.000Z,10.40
2019-04-25T02:14:04.822Z,10.33
2019-04-25T02:16:35.405Z,10.34
2019-04-25T02:19:05.571Z,10.27
2019-04-25T02:21:35.048Z,10.28
2019-04-25T02:24:05.686Z,10.34
2019-04-25T02:26:35.544Z,10.29
2019-04-25T02:29:05.243Z,10.31
2019-04-25T02:31:34.980Z,10.28
2019-04-25T02:34:08.439Z,10.36
2019-04-25T02:36:36.112Z,10.36
2019-04-25T02:39:09.135Z,10.30
2019-04-25T02:41:38.967Z,10.35
2019-04-25T02:44:10.169Z,10.23
2019-04-25T02:46:41.656Z,10.25
2019-04-25T02:49:35.949Z,10.36
2019-04-25T02:52:18.045Z,10.36
2019-04-25T02:54:47.734Z,10.30
2019-04-25T02:57:17.418Z,10.25
2019-04-25T02:59:46.785Z,10.21
2019-04-25T03:02:16.120Z,10.39
2019-04-25T03:04:45.522Z,10.36
2019-04-25T03:07:17.563Z,10.33
2019-04-25T03:09:46.332Z,10.35
2019-04-25T03:12:29.194Z,10.46
2019-04-25T03:14:46.919Z,10.24
2019-04-25T03:17:16.259Z,10.29
2019-04-25T03:20:06.622Z,9.84
2019-04-25T03:22:34.813Z,10.06
2019-04-25T03:25:08.776Z,10.19
2019-04-25T03:27:37.076Z,10.03
2019-04-25T03:30:13.735Z,10.12
2019-04-25T03:32:40.636Z,10.12
2019-04-25T03:35:10.196Z,10.25
2019-04-25T03:37:39.519Z,10.36
2019-04-25T03:40:09.667Z,10.36
2019-04-25T03:42:39.158Z,10.42
2019-04-25T03:45:09.433Z,10.45
2019-04-25T03:47:39.186Z,10.57
2019-04-25T03:50:08.866Z,10.79
2019-04-25T03:52:38.676Z,10.77
2019-04-25T03:55:08.685Z,10.92
2019-04-25T03:57:38.171Z,10.96
2019-04-25T04:00:08.724Z,11.07
2019-04-25T04:02:38.076Z,11.09
2019-04-25T04:05:08.382Z,11.05
2019-04-25T04:07:38.512Z,10.86
2019-04-25T04:10:09.934Z,10.76
2019-04-25T04:12:39.252Z,10.71
2019-04-25T04:15:09.262Z,10.64
2019-04-25T04:17:40.197Z,10.60
2019-04-25T04:20:11.582Z,10.63
2019-04-25T04:22:43.854Z,10.59
2019-04-25T04:25:15.895Z,10.58
2019-04-25T04:27:45.370Z,10.64
2019-04-25T04:30:15.398Z,10.60
2019-04-25T04:32:45.020Z,10.61
2019-04-25T04:35:15.149Z,10.57
2019-04-25T04:37:45.727Z,10.60
2019-04-25T04:40:17.250Z,10.58
2019-04-25T04:42:46.157Z,10.69
2019-04-25T04:45:16.498Z,10.72
2019-04-25T04:47:46.378Z,10.80
2019-04-25T04:50:16.660Z,11.02
2019-04-25T04:52:46.247Z,11.35
2019-04-25T04:55:17.256Z,11.28
2019-04-25T04:57:46.809Z,11.46
2019-04-25T05:00:16.956Z,11.45
2019-04-25T05:02:50.998Z,11.56
2019-04-25T05:05:23.489Z,11.59
2019-04-25T05:07:54.578Z,11.64
2019-04-25T05:10:24.648Z,11.85
2019-04-25T05:12:54.298Z,11.82
2019-04-25T05:15:24.792Z,11.80
2019-04-25T05:17:54.529Z,11.89
2019-04-25T05:20:24.306Z,12.06
2019-04-25T05:22:54.936Z,12.17
2019-04-25T05:25:24.871Z,12.18
2019-04-25T05:28:00.728Z,12.20
2019-04-25T05:30:29.525Z,12.12
2019-04-25T05:32:58.836Z,11.95
2019-04-25T05:35:28.150Z,11.92
2019-04-25T05:37:57.429Z,12.01
2019-04-25T05:40:26.725Z,11.96
2019-04-25T05:43:06.401Z,12.20
2019-04-25T05:45:35.711Z,12.35
2019-04-25T05:48:06.067Z,12.15
2019-04-25T05:50:35.635Z,12.25
2019-04-25T05:53:04.935Z,12.75
2019-04-25T05:55:34.407Z,13.11
2019-04-25T05:58:04.062Z,12.98
2019-04-25T06:00:34.096Z,13.31
2019-04-25T06:03:03.884Z,13.12
2019-04-25T06:05:33.615Z,13.12
2019-04-25T06:08:04.371Z,13.25
2019-04-25T06:10:41.784Z,13.15
2019-04-25T06:13:13.769Z,13.14
2019-04-25T06:15:45.226Z,13.26
2019-04-25T06:18:16.206Z,13.34
2019-04-25T06:20:45.982Z,13.77
2019-04-25T06:23:20.567Z,13.62
2019-04-25T06:25:50.080Z,14.02
2019-04-25T06:28:21.723Z,13.85
2019-04-25T06:30:51.893Z,13.30
2019-04-25T06:33:23.680Z,13.39
2019-04-25T06:35:52.540Z,13.81
2019-04-25T06:38:24.826Z,13.76
2019-04-25T06:40:53.598Z,13.67
2019-04-25T06:43:24.570Z,13.92
2019-04-25T06:46:14.174Z,13.67
2019-04-25T06:48:51.205Z,13.56
2019-04-25T06:51:22.464Z,13.55
2019-04-25T06:53:53.362Z,13.61
2019-04-25T06:56:24.849Z,13.75
2019-04-25T06:58:54.989Z,13.67
2019-04-25T07:01:27.425Z,13.64
2019-04-25T07:03:56.359Z,13.65
2019-04-25T07:06:26.422Z,13.57
2019-04-25T07:08:56.606Z,13.57
2019-04-25T07:11:27.006Z,13.64
2019-04-25T07:13:56.718Z,13.76
2019-04-25T07:16:26.190Z,13.98
2019-04-25T07:18:55.756Z,14.18
2019-04-25T07:21:25.937Z,14.38
2019-04-25T07:23:55.580Z,14.35
2019-04-25T07:26:28.228Z,14.53
2019-04-25T07:29:03.287Z,14.70
2019-04-25T07:31:35.695Z,15.09
2019-04-25T07:34:07.093Z,14.35
2019-04-25T07:36:37.312Z,14.16
2019-04-25T07:39:10.553Z,14.80
2019-04-25T07:41:40.436Z,15.27
2019-04-25T07:44:09.908Z,15.30
2019-04-25T07:46:40.133Z,15.52
2019-04-25T07:49:09.811Z,15.07
2019-04-25T07:51:39.124Z,14.90
2019-04-25T07:54:08.411Z,14.80
2019-04-25T07:56:39.319Z,15.03
2019-04-25T07:59:08.682Z,14.69
2019-04-25T08:01:39.102Z,14.55
2019-04-25T08:04:08.840Z,14.60
2019-04-25T08:06:38.216Z,14.54
2019-04-25T08:09:11.215Z,14.57
2019-04-25T08:11:41.120Z,14.78
2019-04-25T08:14:12.136Z,14.68
2019-04-25T08:16:58.850Z,14.90
2019-04-25T08:19:28.712Z,14.95
2019-04-25T08:22:00.055Z,15.30
2019-04-25T08:24:31.179Z,15.17
2019-04-25T08:27:00.469Z,15.41
2019-04-25T08:29:31.745Z,16.20
2019-04-25T08:32:01.125Z,16.09
2019-04-25T08:34:31.012Z,16.19
2019-04-25T08:37:00.464Z,16.52
2019-04-25T08:39:30.443Z,16.42
2019-04-25T08:41:59.822Z,16.56
2019-04-25T08:44:29.128Z,16.73
2019-04-25T08:46:58.553Z,16.47
2019-04-25T08:49:29.503Z,16.74
2019-04-25T08:51:59.650Z,16.54
2019-04-25T08:54:31.038Z,16.47
2019-04-25T08:57:04.340Z,16.91
2019-04-25T08:59:52.277Z,16.60
2019-04-25T09:02:26.911Z,16.59
2019-04-25T09:05:14.480Z,16.63
2019-04-25T09:07:45.394Z,16.88
2019-04-25T09:10:15.296Z,16.78
2019-04-25T09:12:45.388Z,17.11
2019-04-25T09:15:15.827Z,16.67
2019-04-25T09:17:47.058Z,16.72
2019-04-25T09:20:16.885Z,16.38
2019-04-25T09:22:46.161Z,16.32
2019-04-25T09:25:17.134Z,16.39
2019-04-25T09:27:47.071Z,16.69
2019-04-25T09:30:17.190Z,16.39
2019-04-25T09:32:46.538Z,16.82
2019-04-25T09:35:15.922Z,16.64
2019-04-25T09:37:46.235Z,16.87
2019-04-25T09:40:17.135Z,17.17
2019-04-25T09:42:47.088Z,17.34
2019-04-25T09:45:20.067Z,17.82
2019-04-25T09:47:51.067Z,18.05
2019-04-25T09:50:38.345Z,18.48
2019-04-25T09:53:21.068Z,17.44
2019-04-25T09:55:50.717Z,17.28
2019-04-25T09:58:25.005Z,17.74
2019-04-25T10:01:01.717Z,17.93
2019-04-25T10:03:31.162Z,18.05
2019-04-25T10:06:00.643Z,18.04
2019-04-25T10:08:29.942Z,18.30
2019-04-25T10:10:59.342Z,18.44
2019-04-25T10:13:29.040Z,18.74
2019-04-25T10:16:03.759Z,19.49
2019-04-25T10:18:34.780Z,19.87
2019-04-25T10:21:07.216Z,20.33
2019-04-25T10:23:38.164Z,20.75
2019-04-25T10:26:10.545Z,21.03
2019-04-25T10:28:41.637Z,20.48
2019-04-25T10:31:13.602Z,20.61
2019-04-25T10:33:45.286Z,20.93
2019-04-25T10:36:14.544Z,21.03
2019-04-25T10:38:54.489Z,20.07
2019-04-25T10:41:16.378Z,19.77
2019-04-25T10:43:46.122Z,20.92
2019-04-25T10:46:17.946Z,20.93
2019-04-25T10:48:48.032Z,20.41
2019-04-25T10:51:17.647Z,20.73
2019-04-25T10:53:47.061Z,20.93
2019-04-25T10:56:16.522Z,20.63
2019-04-25T10:58:46.739Z,20.28
2019-04-25T11:01:16.425Z,21.25
2019-04-25T11:03:48.367Z,20.52
2019-04-25T11:06:20.175Z,20.21
2019-04-25T11:08:49.931Z,20.42
2019-04-25T11:11:19.298Z,20.34
2019-04-25T11:13:49.017Z,21.11
2019-04-25T11:16:18.393Z,20.93
2019-04-25T11:18:48.043Z,21.18
2019-04-25T11:21:17.513Z,20.80
2019-04-25T11:23:48.859Z,20.23
2019-04-25T11:26:20.331Z,20.01
2019-04-25T11:28:50.964Z,20.03
2019-04-25T11:31:23.527Z,19.74
2019-04-25T11:33:54.506Z,19.91
2019-04-25T11:36:24.991Z,19.84
2019-04-25T11:39:13.565Z,19.73
2019-04-25T11:41:46.198Z,19.92
2019-04-25T11:44:14.718Z,19.77
2019-04-25T11:46:45.751Z,20.23
2019-04-25T11:49:15.649Z,20.31
2019-04-25T11:51:46.034Z,20.01
2019-04-25T11:54:15.572Z,20.33
2019-04-25T11:56:46.073Z,20.48
2019-04-25T11:59:16.283Z,20.35
2019-04-25T12:01:47.551Z,20.79
2019-04-25T12:04:17.378Z,20.87
2019-04-25T12:06:47.650Z,20.69
2019-04-25T12:09:18.217Z,20.16
2019-04-25T12:11:48.522Z,20.28
2019-04-25T12:14:18.199Z,20.12
2019-04-25T12:16:50.317Z,19.72
2019-04-25T12:19:19.563Z,19.83
2019-04-25T12:21:50.255Z,19.80
2019-04-25T12:24:19.654Z,19.94
2019-04-25T12:26:49.598Z,19.82
2019-04-25T12:29:19.363Z,20.10
2019-04-25T12:31:49.261Z,20.14
2019-04-25T12:34:18.746Z,20.13
2019-04-25T12:36:48.479Z,19.96
2019-04-25T12:39:18.344Z,19.83
2019-04-25T12:41:49.019Z,20.27
2019-04-25T12:44:36.923Z,20.21
2019-04-25T12:47:20.059Z,20.55
2019-04-25T12:49:49.448Z,20.35
2019-04-25T12:52:18.838Z,20.80
2019-04-25T12:54:49.151Z,21.20
2019-04-25T12:57:18.887Z,21.31
2019-04-25T12:59:49.150Z,21.61
2019-04-25T13:02:18.737Z,22.04
2019-04-25T13:04:48.129Z,22.15
2019-04-25T13:07:17.523Z,21.81
2019-04-25T13:09:48.305Z,21.61
2019-04-25T13:12:19.930Z,21.53
2019-04-25T13:14:49.520Z,21.84
2019-04-25T13:17:19.065Z,21.57
2019-04-25T13:19:48.414Z,21.02
2019-04-25T13:22:18.093Z,21.47
2019-04-25T13:24:47.549Z,21.47
2019-04-25T13:27:24.245Z,21.98
2019-04-25T13:30:00.956Z,21.83
2019-04-25T13:32:32.080Z,21.96
2019-04-25T13:35:03.816Z,22.48
2019-04-25T13:37:34.241Z,21.96
2019-04-25T13:40:04.865Z,22.69
2019-04-25T13:42:34.141Z,22.78
2019-04-25T13:45:05.167Z,22.16
2019-04-25T13:47:35.317Z,22.20
2019-04-25T13:50:07.851Z,21.74
2019-04-25T13:52:37.275Z,21.77
2019-04-25T13:55:06.947Z,21.25
2019-04-25T13:57:36.359Z,21.57
2019-04-25T14:00:09.438Z,21.35
2019-04-25T14:02:38.822Z,21.81
2019-04-25T14:05:08.688Z,21.91
2019-04-25T14:07:37.986Z,21.36
2019-04-25T14:10:07.698Z,21.33
2019-04-25T14:12:37.004Z,21.44
2019-04-25T14:15:08.765Z,21.40
2019-04-25T14:17:40.239Z,21.59
2019-04-25T14:20:14.402Z,21.50
2019-04-25T14:22:45.382Z,21.46
2019-04-25T14:25:15.633Z,21.25
2019-04-25T14:27:44.959Z,21.26
2019-04-25T14:30:16.447Z,21.29
2019-04-25T14:32:45.812Z,21.39
2019-04-25T14:35:16.245Z,21.28
2019-04-25T14:37:45.540Z,21.23
2019-04-25T14:40:15.241Z,21.43
2019-04-25T14:42:44.541Z,21.25
2019-04-25T14:45:15.118Z,21.13
2019-04-25T14:47:44.416Z,21.41
2019-04-25T14:50:13.775Z,21.65
2019-04-25T14:52:43.148Z,21.40
2019-04-25T14:55:31.627Z,21.28
2019-04-25T14:58:02.992Z,21.26
2019-04-25T15:00:42.827Z,21.19
2019-04-25T15:03:12.216Z,21.12
2019-04-25T15:05:43.417Z,21.11
2019-04-25T15:08:12.625Z,21.07
2019-04-25T15:10:41.987Z,21.31
2019-04-25T15:13:12.002Z,21.33
2019-04-25T15:15:41.410Z,21.29
2019-04-25T15:18:10.865Z,21.26
2019-04-25T15:20:40.145Z,21.30
2019-04-25T15:23:09.452Z,21.29
2019-04-25T15:25:39.301Z,21.26
2019-04-25T15:28:08.826Z,21.28
2019-04-25T15:30:39.381Z,21.20
2019-04-25T15:33:09.020Z,21.25
2019-04-25T15:35:48.446Z,21.24
2019-04-25T15:38:19.369Z,21.24
2019-04-25T15:40:52.803Z,21.24
2019-04-25T15:43:23.783Z,21.25
2019-04-25T15:45:54.724Z,21.24
2019-04-25T15:48:24.210Z,21.16
2019-04-25T15:50:55.659Z,21.26
2019-04-25T15:53:25.569Z,21.05
2019-04-25T15:55:54.875Z,21.00
2019-04-25T15:58:24.251Z,20.96
2019-04-25T16:00:53.534Z,20.99
2019-04-25T16:03:22.819Z,20.94
2019-04-25T16:05:52.188Z,20.96
2019-04-25T16:08:21.509Z,21.11
2019-04-25T16:10:50.804Z,21.03
2019-04-25T16:13:20.190Z,20.93
2019-04-25T16:15:49.489Z,20.95
2019-04-25T16:18:18.939Z,20.94
2019-04-25T16:20:48.240Z,20.85
2019-04-25T16:23:18.509Z,20.84
2019-04-25T16:25:47.799Z,20.84
2019-04-25T16:28:17.100Z,20.85
2019-04-25T16:30:46.483Z,20.83
2019-04-25T16:33:15.855Z,20.73
2019-04-25T16:35:45.144Z,20.80
2019-04-25T16:38:14.823Z,20.88
2019-04-25T16:40:44.198Z,20.83
2019-04-25T16:43:15.209Z,20.72
2019-04-25T16:45:44.758Z,20.37
2019-04-25T16:48:14.503Z,20.21
2019-04-25T16:50:43.807Z,20.22
2019-04-25T16:53:13.539Z,20.01
2019-04-25T16:55:42.840Z,20.08
2019-04-25T16:58:13.197Z,20.06
2019-04-25T17:00:47.255Z,19.77
2019-04-25T17:03:17.468Z,19.62
2019-04-25T17:05:46.805Z,19.42
2019-04-25T17:08:16.530Z,19.42
2019-04-25T17:10:45.873Z,19.13
2019-04-25T17:13:15.448Z,19.08
2019-04-25T17:15:52.261Z,19.04
2019-04-25T17:18:25.596Z,18.96
2019-04-25T17:21:08.561Z,18.73
2019-04-25T17:23:37.864Z,18.73
2019-04-25T17:26:08.187Z,18.54
2019-04-25T17:28:39.250Z,18.50
2019-04-25T17:31:28.561Z,18.44
2019-04-25T17:34:08.776Z,18.53
2019-04-25T17:36:58.320Z,18.48
2019-04-25T17:39:29.285Z,18.28
2019-04-25T17:42:01.410Z,18.08
2019-04-25T17:44:30.240Z,18.00
2019-04-25T17:47:06.162Z,18.08
2019-04-25T17:49:30.685Z,17.75
2019-04-25T17:52:00.067Z,17.70
2019-04-25T17:54:29.446Z,17.70
2019-04-25T17:56:58.765Z,17.64
2019-04-25T17:59:28.503Z,17.69
2019-04-25T18:01:57.834Z,17.55
2019-04-25T18:04:27.394Z,17.59
2019-04-25T18:06:56.926Z,17.53
2019-04-25T18:09:26.739Z,17.47
2019-04-25T18:11:56.031Z,17.42
2019-04-25T18:14:25.392Z,17.38
2019-04-25T18:16:54.681Z,17.36
2019-04-25T18:19:44.742Z,17.38
2019-04-25T18:22:15.685Z,17.13
2019-04-25T18:24:58.779Z,17.10
2019-04-25T18:27:29.755Z,16.93
2019-04-25T18:29:59.066Z,16.96
2019-04-25T18:32:30.148Z,16.74
2019-04-25T18:35:01.174Z,16.67
2019-04-25T18:37:35.004Z,16.65
2019-04-25T18:40:23.484Z,16.47
2019-04-25T18:43:00.995Z,16.51
2019-04-25T18:45:32.141Z,16.51
2019-04-25T18:48:01.438Z,16.51
2019-04-25T18:50:32.386Z,16.52
2019-04-25T18:53:18.412Z,16.34
2019-04-25T18:55:52.659Z,16.41
2019-04-25T18:58:29.952Z,16.38
2019-04-25T19:01:03.768Z,16.27
2019-04-25T19:03:50.683Z,16.29
2019-04-25T19:06:22.021Z,16.26
2019-04-25T19:08:53.413Z,16.37
2019-04-25T19:11:24.930Z,16.30
2019-04-25T19:13:54.227Z,16.32
2019-04-25T19:16:23.898Z,16.18
2019-04-25T19:18:53.218Z,16.19
2019-04-25T19:21:22.668Z,16.17
2019-04-25T19:23:52.756Z,16.20
2019-04-25T19:26:22.649Z,16.19
2019-04-25T19:28:52.215Z,16.21
2019-04-25T19:31:21.704Z,16.34
2019-04-25T19:33:51.749Z,16.16
2019-04-25T19:36:21.633Z,16.25
2019-04-25T19:38:50.953Z,16.17
2019-04-25T19:41:28.642Z,16.36
2019-04-25T19:43:59.908Z,15.98
2019-04-25T19:46:30.870Z,16.04
2019-04-25T19:49:00.259Z,16.20
2019-04-25T19:51:29.598Z,16.28
2019-04-25T19:53:59.239Z,16.39
2019-04-25T19:56:28.880Z,16.34
2019-04-25T19:58:58.469Z,15.98
2019-04-25T20:01:28.182Z,15.78
2019-04-25T20:04:00.679Z,15.84
2019-04-25T20:06:47.550Z,16.05
2019-04-25T20:09:30.394Z,16.10
2019-04-25T20:11:59.893Z,16.17
2019-04-25T20:14:29.512Z,15.92
2019-04-25T20:16:58.834Z,15.65
2019-04-25T20:19:28.703Z,15.94
2019-04-25T20:21:58.033Z,15.77
2019-04-25T20:24:27.383Z,15.45
2019-04-25T20:26:56.764Z,15.73
2019-04-25T20:29:27.055Z,15.87
2019-04-25T20:31:56.417Z,15.70
2019-04-25T20:34:25.688Z,15.59
2019-04-25T20:36:55.791Z,15.54
2019-04-25T20:39:27.780Z,15.39
2019-04-25T20:41:56.466Z,15.32
2019-04-25T20:44:25.792Z,15.35
2019-04-25T20:46:55.354Z,15.28
2019-04-25T20:49:24.719Z,15.29
2019-04-25T20:51:54.693Z,15.41
2019-04-25T20:54:24.404Z,15.77
2019-04-25T20:56:53.738Z,15.74
2019-04-25T20:59:23.315Z,15.90
2019-04-25T21:01:53.518Z,15.81
2019-04-25T21:04:42.955Z,15.41
2019-04-25T21:07:13.469Z,15.33
2019-04-25T21:09:42.971Z,15.66
2019-04-25T21:12:12.276Z,15.31
2019-04-25T21:14:46.402Z,15.56
2019-04-25T21:17:20.080Z,15.43
2019-04-25T21:19:51.769Z,15.45
2019-04-25T21:22:22.221Z,15.50
2019-04-25T21:24:51.857Z,15.40
2019-04-25T21:27:21.284Z,15.40
2019-04-25T21:29:51.995Z,15.32
2019-04-25T21:32:23.194Z,15.24
2019-04-25T21:34:53.117Z,15.28
2019-04-25T21:37:22.532Z,15.20
2019-04-25T21:40:03.051Z,15.04
2019-04-25T21:42:34.281Z,14.98
2019-04-25T21:45:05.477Z,14.93
2019-04-25T21:47:37.807Z,14.92
2019-04-25T21:50:08.352Z,14.81
2019-04-25T21:52:38.003Z,14.96
2019-04-25T21:55:08.528Z,14.83
2019-04-25T21:57:38.203Z,14.72
2019-04-25T22:00:11.521Z,14.84
2019-04-25T22:02:41.367Z,14.95
2019-04-25T22:05:11.950Z,14.94
2019-04-25T22:07:41.718Z,14.90
2019-04-25T22:10:11.758Z,14.75
2019-04-25T22:12:41.146Z,14.61
2019-04-25T22:15:13.260Z,14.67
2019-04-25T22:17:42.779Z,14.73
2019-04-25T22:20:12.169Z,14.87
2019-04-25T22:22:41.872Z,14.85
2019-04-25T22:25:11.299Z,14.87
2019-04-25T22:27:40.950Z,14.67
2019-04-25T22:30:12.442Z,14.48
2019-04-25T22:32:55.807Z,14.67
2019-04-25T22:35:26.731Z,14.70
2019-04-25T22:37:56.049Z,14.73
2019-04-25T22:40:25.346Z,14.56
2019-04-25T22:42:54.868Z,14.61
2019-04-25T22:45:24.632Z,14.33
2019-04-25T22:47:54.760Z,14.44
2019-04-25T22:50:24.458Z,14.30
2019-04-25T22:52:54.020Z,14.05
2019-04-25T22:55:23.326Z,14.43
2019-04-25T22:57:53.010Z,14.33
2019-04-25T23:00:26.723Z,14.45
2019-04-25T23:03:01.999Z,14.38
2019-04-25T23:05:33.962Z,14.50
2019-04-25T23:08:04.146Z,14.46
2019-04-25T23:10:33.609Z,14.33
2019-04-25T23:13:04.611Z,14.23
2019-04-25T23:15:34.445Z,14.11
2019-04-25T23:18:05.273Z,14.16
2019-04-25T23:20:34.859Z,14.21
2019-04-25T23:23:04.761Z,14.01
2019-04-25T23:25:37.120Z,13.73
2019-04-25T23:28:10.483Z,13.62
2019-04-25T23:30:45.159Z,13.58
2019-04-25T23:33:14.711Z,13.58
2019-04-25T23:35:46.085Z,13.52
2019-04-25T23:38:16.117Z,13.52
2019-04-25T23:40:45.683Z,13.60
2019-04-25T23:43:15.897Z,13.57
2019-04-25T23:45:45.277Z,13.55
2019-04-25T23:48:15.336Z,13.61
2019-04-25T23:50:44.626Z,13.52
2019-04-25T23:53:15.032Z,13.36
2019-04-25T23:55:45.031Z,13.30
2019-04-25T23:58:14.670Z,13.21
